createdAt,value
2022-09-01T00:00:30.097Z,101675.63
2022-09-01T00:02:58.407Z,101675.13
2022-09-01T00:05:27.333Z,101671.03
2022-09-01T00:07:55.641Z,101670.88
2022-09-01T00:10:23.902Z,101660.00
2022-09-01T00:12:53.691Z,101665.28
2022-09-01T00:15:22.707Z,101663.94
2022-09-01T00:17:51.032Z,101659.69
2022-09-01T00:20:21.742Z,101663.13
2022-09-01T00:22:50.408Z,101662.28
2022-09-01T00:25:20.487Z,101659.38
2022-09-01T00:27:49.586Z,101669.78
2022-09-01T00:30:19.735Z,101671.78
2022-09-01T00:32:49.154Z,101670.94
2022-09-01T00:35:21.417Z,101671.66
2022-09-01T00:37:50.237Z,101670.63
2022-09-01T00:40:19.466Z,101668.41
2022-09-01T00:42:50.693Z,101678.25
2022-09-01T00:45:22.710Z,101666.91
2022-09-01T00:47:51.582Z,101666.91
2022-09-01T00:50:21.548Z,101669.78
2022-09-01T00:52:53.469Z,101669.63
2022-09-01T00:55:26.672Z,101673.53
2022-09-01T00:57:56.144Z,101667.91
2022-09-01T01:00:31.679Z,101674.88
2022-09-01T01:03:00.384Z,101670.94
2022-09-01T01:05:40.477Z,101680.84
2022-09-01T01:08:12.238Z,101676.25
2022-09-01T01:10:43.544Z,101689.66
2022-09-01T01:13:15.532Z,101674.38
2022-09-01T01:15:46.103Z,101668.22
2022-09-01T01:18:16.015Z,101671.13
2022-09-01T01:21:18.764Z,101671.81
2022-09-01T01:23:53.397Z,101665.88
2022-09-01T01:26:23.701Z,101661.13
2022-09-01T01:28:55.149Z,101667.94
2022-09-01T01:31:24.839Z,101659.78
2022-09-01T01:33:56.934Z,101659.94
2022-09-01T01:36:32.625Z,101663.47
2022-09-01T01:39:03.863Z,101664.31
2022-09-01T01:41:41.013Z,101660.75
2022-09-01T01:44:09.771Z,101667.41
2022-09-01T01:46:43.192Z,101661.78
2022-09-01T01:49:13.414Z,101657.38
2022-09-01T01:51:49.069Z,101663.31
2022-09-01T01:54:19.991Z,101657.88
2022-09-01T01:56:49.911Z,101664.66
2022-09-01T01:59:19.516Z,101656.00
2022-09-01T02:01:51.655Z,101656.50
2022-09-01T02:04:21.826Z,101653.31
2022-09-01T02:06:52.188Z,101655.50
2022-09-01T02:09:23.511Z,101661.25
2022-09-01T02:11:57.299Z,101657.03
2022-09-01T02:14:25.875Z,101647.19
2022-09-01T02:16:56.332Z,101649.19
2022-09-01T02:19:24.785Z,101643.59
2022-09-01T02:21:56.398Z,101645.97
2022-09-01T02:24:26.549Z,101636.31
2022-09-01T02:26:57.019Z,101636.09
2022-09-01T02:29:28.874Z,101628.84
2022-09-01T02:31:58.228Z,101623.53
2022-09-01T02:34:29.174Z,101629.34
2022-09-01T02:36:59.134Z,101622.53
2022-09-01T02:39:29.432Z,101619.28
2022-09-01T02:41:59.743Z,101618.78
2022-09-01T02:44:28.023Z,101618.28
2022-09-01T02:46:56.399Z,101621.13
2022-09-01T02:49:28.397Z,101614.19
2022-09-01T02:52:02.110Z,101611.09
2022-09-01T02:54:31.993Z,101616.53
2022-09-01T02:57:02.178Z,101609.41
2022-09-01T02:59:31.110Z,101617.88
2022-09-01T03:01:59.691Z,101619.88
2022-09-01T03:04:29.081Z,101625.66
2022-09-01T03:06:58.995Z,101620.53
2022-09-01T03:09:28.197Z,101612.91
2022-09-01T03:11:56.856Z,101612.22
2022-09-01T03:14:27.095Z,101604.75
2022-09-01T03:16:55.525Z,101603.22
2022-09-01T03:19:23.852Z,101600.81
2022-09-01T03:21:52.448Z,101606.75
2022-09-01T03:24:21.751Z,101600.47
2022-09-01T03:26:53.001Z,101606.38
2022-09-01T03:29:21.684Z,101596.88
2022-09-01T03:31:51.415Z,101593.66
2022-09-01T03:34:23.809Z,101592.97
2022-09-01T03:36:52.165Z,101591.59
2022-09-01T03:39:20.686Z,101592.59
2022-09-01T03:41:49.314Z,101593.94
2022-09-01T03:44:17.744Z,101595.28
2022-09-01T03:46:46.280Z,101591.72
2022-09-01T03:49:25.199Z,101591.19
2022-09-01T03:51:54.535Z,101592.03
2022-09-01T03:54:25.203Z,101589.81
2022-09-01T03:56:55.223Z,101583.84
2022-09-01T03:59:25.843Z,101595.53
2022-09-01T04:01:54.670Z,101586.88
2022-09-01T04:04:24.797Z,101577.19
2022-09-01T04:06:53.374Z,101578.03
2022-09-01T04:09:21.596Z,101574.81
2022-09-01T04:11:50.949Z,101584.81
2022-09-01T04:14:19.192Z,101577.84
2022-09-01T04:17:05.827Z,101580.56
2022-09-01T04:19:39.604Z,101568.50
2022-09-01T04:22:13.612Z,101562.38
2022-09-01T04:24:46.283Z,101574.56
2022-09-01T04:27:18.314Z,101568.63
2022-09-01T04:29:47.092Z,101567.28
2022-09-01T04:32:16.050Z,101554.03
2022-09-01T04:34:46.105Z,101558.78
2022-09-01T04:37:18.270Z,101557.41
2022-09-01T04:39:56.504Z,101553.00
2022-09-01T04:42:27.449Z,101555.00
2022-09-01T04:44:57.647Z,101556.03
2022-09-01T04:47:35.613Z,101555.00
2022-09-01T04:50:14.506Z,101556.19
2022-09-01T04:52:43.656Z,101559.03
2022-09-01T04:55:17.871Z,101556.66
2022-09-01T04:57:47.849Z,101556.66
2022-09-01T05:00:22.766Z,101555.13
2022-09-01T05:02:53.453Z,101547.31
2022-09-01T05:05:24.639Z,101541.38
2022-09-01T05:07:53.956Z,101540.28
2022-09-01T05:10:22.533Z,101528.09
2022-09-01T05:12:52.488Z,101526.72
2022-09-01T05:15:21.241Z,101525.31
2022-09-01T05:17:49.443Z,101532.44
2022-09-01T05:20:20.544Z,101537.31
2022-09-01T05:22:50.593Z,101531.91
2022-09-01T05:25:21.012Z,101539.34
2022-09-01T05:27:50.009Z,101539.16
2022-09-01T05:30:19.212Z,101524.78
2022-09-01T05:32:53.017Z,101528.69
2022-09-01T05:35:24.966Z,101520.00
2022-09-01T05:38:02.572Z,101517.91
2022-09-01T05:40:32.659Z,101518.03
2022-09-01T05:43:01.357Z,101514.66
2022-09-01T05:45:44.770Z,101511.09
2022-09-01T05:48:26.647Z,101511.41
2022-09-01T05:50:57.522Z,101509.25
2022-09-01T05:53:30.211Z,101507.22
2022-09-01T05:55:59.552Z,101505.22
2022-09-01T05:59:22.627Z,101502.06
2022-09-01T06:01:22.295Z,101510.88
2022-09-01T06:03:54.910Z,101510.56
2022-09-01T06:06:23.461Z,101510.78
2022-09-01T06:08:59.041Z,101505.06
2022-09-01T06:11:33.115Z,101501.50
2022-09-01T06:14:03.019Z,101504.72
2022-09-01T06:16:39.329Z,101504.09
2022-09-01T06:19:07.660Z,101502.06
2022-09-01T06:21:35.990Z,101495.31
2022-09-01T06:24:09.394Z,101494.31
2022-09-01T06:26:40.386Z,101501.28
2022-09-01T06:29:15.662Z,101491.13
2022-09-01T06:31:51.917Z,101501.47
2022-09-01T06:34:21.835Z,101492.00
2022-09-01T06:36:52.881Z,101499.50
2022-09-01T06:39:22.616Z,101505.09
2022-09-01T06:41:53.385Z,101503.63
2022-09-01T06:44:23.301Z,101505.16
2022-09-01T06:46:53.247Z,101506.03
2022-09-01T06:49:23.671Z,101504.00
2022-09-01T06:51:52.870Z,101499.41
2022-09-01T06:54:23.049Z,101493.91
2022-09-01T06:56:51.754Z,101497.31
2022-09-01T06:59:22.025Z,101499.03
2022-09-01T07:01:52.347Z,101504.59
2022-09-01T07:04:22.268Z,101506.19
2022-09-01T07:07:53.271Z,101505.66
2022-09-01T07:09:50.118Z,101513.78
2022-09-01T07:12:32.154Z,101502.47
2022-09-01T07:17:51.658Z,101513.03
2022-09-01T07:20:25.945Z,101513.09
2022-09-01T07:23:03.982Z,101507.63
2022-09-01T07:28:37.674Z,101512.03
2022-09-01T07:38:47.748Z,101511.91
2022-09-01T07:42:56.940Z,101515.94
2022-09-01T07:45:30.964Z,101518.03
2022-09-01T07:48:03.631Z,101520.22
2022-09-01T07:51:34.260Z,101523.94
2022-09-01T07:53:25.763Z,101513.41
2022-09-01T07:55:56.434Z,101516.44
2022-09-01T07:58:27.921Z,101504.28
2022-09-01T08:01:00.473Z,101495.56
2022-09-01T08:03:32.293Z,101495.31
2022-09-01T08:06:09.030Z,101501.38
2022-09-01T08:08:43.917Z,101490.41
2022-09-01T08:11:21.916Z,101496.28
2022-09-01T08:15:12.663Z,101490.41
2022-09-01T08:17:50.664Z,101490.13
2022-09-01T08:20:17.373Z,101488.53
2022-09-01T08:22:49.751Z,101482.53
2022-09-01T08:25:24.303Z,101484.16
2022-09-01T08:27:59.698Z,101479.75
2022-09-01T08:30:33.083Z,101476.44
2022-09-01T08:33:12.724Z,101481.44
2022-09-01T08:35:41.936Z,101488.75
2022-09-01T08:38:12.366Z,101486.31
2022-09-01T08:40:43.625Z,101481.66
2022-09-01T08:43:20.290Z,101486.13
2022-09-01T08:45:55.349Z,101479.75
2022-09-01T08:51:34.385Z,101469.56
2022-09-01T08:54:08.876Z,101464.75
2022-09-01T08:56:44.160Z,101463.72
2022-09-01T08:59:15.034Z,101473.88
2022-09-01T09:01:52.474Z,101465.13
2022-09-01T09:04:37.203Z,101466.09
2022-09-01T09:07:14.586Z,101466.63
2022-09-01T09:09:54.020Z,101464.72
2022-09-01T09:12:49.055Z,101465.59
2022-09-01T09:15:28.749Z,101465.59
2022-09-01T09:18:39.365Z,101460.34
2022-09-01T09:21:17.671Z,101454.69
2022-09-01T09:23:50.602Z,101458.47
2022-09-01T09:26:23.089Z,101456.97
2022-09-01T09:28:51.880Z,101456.84
2022-09-01T09:31:29.158Z,101458.59
2022-09-01T09:34:04.140Z,101457.00
2022-09-01T09:36:39.533Z,101455.00
2022-09-01T09:39:16.699Z,101450.06
2022-09-01T09:42:12.273Z,101450.63
2022-09-01T09:44:47.109Z,101454.53
2022-09-01T09:47:43.582Z,101449.47
2022-09-01T09:50:23.147Z,101448.47
2022-09-01T09:52:54.188Z,101447.88
2022-09-01T09:55:29.056Z,101449.59
2022-09-01T09:58:01.686Z,101445.47
2022-09-01T10:00:34.189Z,101455.19
2022-09-01T10:03:08.722Z,101457.31
2022-09-01T10:05:43.421Z,101451.91
2022-09-01T10:08:16.808Z,101453.84
2022-09-01T10:10:57.650Z,101436.13
2022-09-01T10:13:31.380Z,101441.44
2022-09-01T10:16:09.356Z,101443.16
2022-09-01T10:18:44.972Z,101440.19
2022-09-01T10:21:18.922Z,101437.66
2022-09-01T10:23:47.302Z,101434.50
2022-09-01T10:26:20.191Z,101429.25
2022-09-01T10:28:55.061Z,101433.44
2022-09-01T10:31:29.485Z,101435.75
2022-09-01T10:34:05.445Z,101435.13
2022-09-01T10:36:40.539Z,101432.16
2022-09-01T10:39:13.536Z,101435.56
2022-09-01T10:41:59.882Z,101435.97
2022-09-01T10:44:34.379Z,101438.50
2022-09-01T10:47:13.529Z,101441.84
2022-09-01T10:50:01.254Z,101445.66
2022-09-01T10:53:00.523Z,101440.19
2022-09-01T10:55:49.990Z,101440.63
2022-09-01T11:02:28.797Z,101436.41
2022-09-01T11:05:21.738Z,101437.44
2022-09-01T11:08:25.363Z,101437.63
2022-09-01T11:11:02.595Z,101439.13
2022-09-01T11:13:39.277Z,101432.81
2022-09-01T11:16:46.713Z,101441.66
2022-09-01T11:19:44.430Z,101434.31
2022-09-01T11:22:26.378Z,101433.22
2022-09-01T11:25:13.530Z,101436.13
2022-09-01T11:28:24.257Z,101433.56
2022-09-01T11:31:02.312Z,101423.63
2022-09-01T11:33:46.506Z,101426.56
2022-09-01T11:36:22.395Z,101420.44
2022-09-01T11:38:57.245Z,101417.88
2022-09-01T11:41:36.498Z,101416.78
2022-09-01T11:44:14.918Z,101418.22
2022-09-01T11:46:45.548Z,101420.09
2022-09-01T11:49:32.530Z,101419.44
2022-09-01T11:52:18.516Z,101421.75
2022-09-01T11:54:49.882Z,101419.19
2022-09-01T11:57:28.233Z,101426.81
2022-09-01T12:00:03.114Z,101420.25
2022-09-01T12:02:37.259Z,101422.16
2022-09-01T12:05:26.873Z,101421.56
2022-09-01T12:07:56.457Z,101415.41
2022-09-01T12:10:33.165Z,101411.13
2022-09-01T12:13:03.929Z,101422.31
2022-09-01T12:16:16.932Z,101410.88
2022-09-01T12:18:48.313Z,101412.00
2022-09-01T12:21:43.415Z,101411.94
2022-09-01T12:24:18.291Z,101409.75
2022-09-01T12:26:59.776Z,101412.84
2022-09-01T12:29:32.129Z,101410.28
2022-09-01T12:32:04.675Z,101404.28
2022-09-01T12:34:45.761Z,101403.63
2022-09-01T12:37:23.155Z,101397.56
2022-09-01T12:39:54.896Z,101403.91
2022-09-01T12:42:40.774Z,101392.75
2022-09-01T12:45:11.378Z,101393.34
2022-09-01T12:47:50.757Z,101390.00
2022-09-01T12:50:47.958Z,101380.50
2022-09-01T12:53:30.581Z,101376.69
2022-09-01T12:56:06.569Z,101370.19
2022-09-01T12:58:36.494Z,101368.22
2022-09-01T13:01:12.239Z,101366.81
2022-09-01T13:04:16.507Z,101360.94
2022-09-01T13:06:46.373Z,101362.56
2022-09-01T13:09:15.106Z,101364.53
2022-09-01T13:14:36.596Z,101359.59
2022-09-01T13:17:06.171Z,101371.47
2022-09-01T13:19:44.587Z,101363.09
2022-09-01T13:22:12.834Z,101364.28
2022-09-01T13:24:41.368Z,101351.53
2022-09-01T13:27:26.176Z,101341.31
2022-09-01T13:29:55.710Z,101352.34
2022-09-01T13:32:27.488Z,101348.97
2022-09-01T13:34:57.286Z,101344.03
2022-09-01T13:37:26.027Z,101344.53
2022-09-01T13:39:54.176Z,101338.81
2022-09-01T13:42:22.861Z,101327.94
2022-09-01T13:44:57.006Z,101336.56
2022-09-01T13:47:29.897Z,101333.47
2022-09-01T13:50:19.947Z,101334.69
2022-09-01T13:52:55.284Z,101330.81
2022-09-01T13:55:27.488Z,101328.66
2022-09-01T13:57:59.910Z,101326.94
2022-09-01T14:00:34.165Z,101335.13
2022-09-01T14:03:07.627Z,101334.47
2022-09-01T14:05:41.279Z,101322.63
2022-09-01T14:08:21.105Z,101324.91
2022-09-01T14:10:52.248Z,101325.28
2022-09-01T14:13:24.760Z,101315.28
2022-09-01T14:15:53.790Z,101310.16
2022-09-01T14:18:23.533Z,101314.53
2022-09-01T14:20:57.384Z,101309.38
2022-09-01T14:23:25.728Z,101316.75
2022-09-01T14:25:53.941Z,101316.56
2022-09-01T14:28:23.725Z,101313.91
2022-09-01T14:33:24.420Z,101301.25
2022-09-01T14:35:54.793Z,101304.31
2022-09-01T14:38:23.042Z,101298.88
2022-09-01T14:40:53.659Z,101299.16
2022-09-01T14:43:22.532Z,101300.44
2022-09-01T14:45:52.234Z,101286.44
2022-09-01T14:48:21.007Z,101291.25
2022-09-01T14:50:51.102Z,101281.81
2022-09-01T14:53:24.523Z,101290.63
2022-09-01T14:55:57.732Z,101284.25
2022-09-01T14:58:27.378Z,101286.28
2022-09-01T15:01:07.233Z,101287.31
2022-09-01T15:03:40.468Z,101282.84
2022-09-01T15:06:09.958Z,101274.94
2022-09-01T15:08:39.775Z,101276.34
2022-09-01T15:11:11.706Z,101264.97
2022-09-01T15:13:43.709Z,101271.28
2022-09-01T15:18:45.129Z,101266.25
2022-09-01T15:21:20.972Z,101262.34
2022-09-01T15:23:51.038Z,101266.31
2022-09-01T15:26:19.654Z,101261.50
2022-09-01T15:28:49.361Z,101257.50
2022-09-01T15:31:28.595Z,101253.97
2022-09-01T15:34:03.598Z,101245.75
2022-09-01T15:36:33.214Z,101247.66
2022-09-01T15:39:03.541Z,101250.34
2022-09-01T15:41:34.789Z,101245.53
2022-09-01T15:44:12.275Z,101247.03
2022-09-01T15:46:43.418Z,101246.56
2022-09-01T15:49:13.983Z,101240.22
2022-09-01T15:51:47.345Z,101239.41
2022-09-01T15:54:21.673Z,101226.34
2022-09-01T15:56:50.034Z,101235.56
2022-09-01T15:59:32.536Z,101235.56
2022-09-01T16:02:02.150Z,101230.53
2022-09-01T16:04:37.601Z,101234.97
2022-09-01T16:07:07.003Z,101231.94
2022-09-01T16:09:38.692Z,101237.53
2022-09-01T16:12:15.811Z,101227.34
2022-09-01T16:14:47.154Z,101229.06
2022-09-01T16:17:49.931Z,101225.97
2022-09-01T16:21:11.714Z,101220.69
2022-09-01T16:23:43.863Z,101213.06
2022-09-01T16:29:51.170Z,101220.06
2022-09-01T16:32:50.687Z,101218.94
2022-09-01T16:35:23.671Z,101228.28
2022-09-01T16:38:07.845Z,101219.34
2022-09-01T16:40:52.942Z,101219.75
2022-09-01T16:43:31.231Z,101212.09
2022-09-01T16:46:09.258Z,101214.84
2022-09-01T16:48:47.493Z,101220.31
2022-09-01T16:51:28.299Z,101213.59
2022-09-01T16:54:12.967Z,101217.88
2022-09-01T16:56:51.179Z,101208.97
2022-09-01T16:59:28.231Z,101210.59
2022-09-01T17:02:11.152Z,101197.94
2022-09-01T17:04:43.449Z,101200.34
2022-09-01T17:07:15.929Z,101200.13
2022-09-01T17:09:46.268Z,101201.50
2022-09-01T17:12:23.354Z,101199.97
2022-09-01T17:14:58.450Z,101197.50
2022-09-01T17:17:35.241Z,101193.06
2022-09-01T17:20:05.268Z,101197.38
2022-09-01T17:22:35.509Z,101189.88
2022-09-01T17:25:08.037Z,101186.81
2022-09-01T17:27:43.291Z,101189.81
2022-09-01T17:33:17.349Z,101187.25
2022-09-01T17:35:59.108Z,101184.38
2022-09-01T17:38:35.804Z,101180.34
2022-09-01T17:41:13.653Z,101185.22
2022-09-01T17:43:54.129Z,101184.88
2022-09-01T17:46:34.429Z,101181.09
2022-09-01T17:49:10.081Z,101179.00
2022-09-01T17:51:45.627Z,101183.28
2022-09-01T17:54:24.629Z,101182.00
2022-09-01T17:57:05.034Z,101189.63
2022-09-01T17:59:46.348Z,101178.06
2022-09-01T18:02:33.063Z,101177.69
2022-09-01T18:05:11.917Z,101179.16
2022-09-01T18:08:06.016Z,101173.69
2022-09-01T18:10:39.761Z,101171.38
2022-09-01T18:13:12.383Z,101178.38
2022-09-01T18:15:49.052Z,101175.63
2022-09-01T18:18:35.975Z,101175.00
2022-09-01T18:21:09.667Z,101181.75
2022-09-01T18:23:40.978Z,101176.47
2022-09-01T18:26:20.611Z,101181.56
2022-09-01T18:28:53.404Z,101184.94
2022-09-01T18:31:51.516Z,101184.50
2022-09-01T18:34:34.922Z,101187.63
2022-09-01T18:37:12.439Z,101186.53
2022-09-01T18:39:50.521Z,101181.09
2022-09-01T18:42:26.168Z,101184.88
2022-09-01T18:45:06.323Z,101182.34
2022-09-01T18:47:36.855Z,101190.09
2022-09-01T18:50:15.667Z,101189.88
2022-09-01T18:52:59.240Z,101185.63
2022-09-01T18:55:34.292Z,101183.97
2022-09-01T18:58:12.653Z,101183.06
2022-09-01T19:00:52.073Z,101186.38
2022-09-01T19:03:28.783Z,101189.34
2022-09-01T19:06:23.953Z,101189.94
2022-09-01T19:09:14.995Z,101187.16
2022-09-01T19:12:02.938Z,101194.66
2022-09-01T19:14:40.709Z,101175.94
2022-09-01T19:17:41.917Z,101181.38
2022-09-01T19:20:13.233Z,101172.84
2022-09-01T19:22:51.546Z,101186.91
2022-09-01T19:25:40.688Z,101176.38
2022-09-01T19:28:16.871Z,101180.31
2022-09-01T19:30:49.403Z,101175.06
2022-09-01T19:33:24.673Z,101181.25
2022-09-01T19:35:58.088Z,101177.66
2022-09-01T19:38:29.376Z,101179.59
2022-09-01T19:41:06.115Z,101175.72
2022-09-01T19:43:38.834Z,101179.31
2022-09-01T19:46:18.977Z,101179.47
2022-09-01T19:48:53.869Z,101180.94
2022-09-01T19:51:28.509Z,101188.25
2022-09-01T19:54:10.092Z,101180.41
2022-09-01T19:56:49.422Z,101178.09
2022-09-01T19:59:23.241Z,101190.94
2022-09-01T20:01:58.760Z,101179.69
2022-09-01T20:04:35.271Z,101176.53
2022-09-01T20:07:09.837Z,101178.06
2022-09-01T20:09:47.437Z,101181.25
2022-09-01T20:12:26.217Z,101174.50
2022-09-01T20:15:12.753Z,101171.94
2022-09-01T20:17:45.184Z,101181.53
2022-09-01T20:20:19.006Z,101183.78
2022-09-01T20:22:56.268Z,101184.44
2022-09-01T20:25:33.988Z,101185.22
2022-09-01T20:28:06.425Z,101180.53
2022-09-01T20:30:40.251Z,101189.63
2022-09-01T20:33:15.491Z,101184.13
2022-09-01T20:35:49.308Z,101185.22
2022-09-01T20:38:42.227Z,101196.53
2022-09-01T20:41:22.383Z,101189.34
2022-09-01T20:43:54.262Z,101193.97
2022-09-01T20:46:23.893Z,101192.34
2022-09-01T20:48:52.392Z,101195.31
2022-09-01T20:51:27.526Z,101194.13
2022-09-01T20:54:09.983Z,101198.06
2022-09-01T20:56:50.978Z,101196.63
2022-09-01T20:59:24.266Z,101196.63
2022-09-01T21:01:59.486Z,101193.16
2022-09-01T21:04:39.667Z,101186.84
2022-09-01T21:07:17.229Z,101190.44
2022-09-01T21:09:56.356Z,101184.09
2022-09-01T21:12:40.223Z,101186.00
2022-09-01T21:15:20.864Z,101182.03
2022-09-01T21:18:01.420Z,101189.63
2022-09-01T21:20:39.381Z,101177.81
2022-09-01T21:23:08.348Z,101182.25
2022-09-01T21:25:36.702Z,101182.88
2022-09-01T21:28:07.254Z,101180.41
2022-09-01T21:30:37.274Z,101175.75
2022-09-01T21:33:06.368Z,101176.38
2022-09-01T21:35:34.782Z,101174.13
2022-09-01T21:38:03.093Z,101169.88
2022-09-01T21:40:32.532Z,101171.34
2022-09-01T21:43:08.591Z,101170.75
2022-09-01T21:45:40.404Z,101171.59
2022-09-01T21:48:09.310Z,101169.25
2022-09-01T21:50:41.103Z,101164.44
2022-09-01T21:53:10.192Z,101163.22
2022-09-01T21:55:38.666Z,101165.47
2022-09-01T21:58:08.299Z,101167.38
2022-09-01T22:00:40.369Z,101167.84
2022-09-01T22:03:12.952Z,101160.28
2022-09-01T22:05:45.199Z,101158.66
2022-09-01T22:08:17.381Z,101167.88
2022-09-01T22:10:49.544Z,101153.88
2022-09-01T22:13:20.693Z,101159.94
2022-09-01T22:15:52.216Z,101153.28
2022-09-01T22:18:23.135Z,101165.81
2022-09-01T22:20:51.967Z,101160.78
2022-09-01T22:23:20.808Z,101161.06
2022-09-01T22:25:50.365Z,101157.88
2022-09-01T22:28:18.924Z,101160.53
2022-09-01T22:30:51.424Z,101164.19
2022-09-01T22:33:20.521Z,101158.34
2022-09-01T22:35:51.758Z,101156.66
2022-09-01T22:38:22.845Z,101153.06
2022-09-01T22:40:55.273Z,101154.31
2022-09-01T22:43:24.253Z,101155.34
2022-09-01T22:45:55.785Z,101152.81
2022-09-01T22:48:27.244Z,101148.63
2022-09-01T22:50:56.742Z,101150.69
2022-09-01T22:53:25.058Z,101153.19
2022-09-01T22:55:54.095Z,101152.34
2022-09-01T22:58:22.494Z,101148.53
2022-09-01T23:00:53.574Z,101138.88
2022-09-01T23:03:24.555Z,101153.53
2022-09-01T23:06:05.475Z,101145.56
2022-09-01T23:08:35.649Z,101142.19
2022-09-01T23:11:03.901Z,101137.97
2022-09-01T23:13:35.278Z,101132.97
2022-09-01T23:16:08.642Z,101131.94
2022-09-01T23:18:41.397Z,101136.34
2022-09-01T23:21:14.270Z,101121.88
2022-09-01T23:23:43.365Z,101124.59
2022-09-01T23:26:13.186Z,101126.03
2022-09-01T23:28:43.602Z,101131.72
2022-09-01T23:31:13.586Z,101122.47
2022-09-01T23:33:44.087Z,101116.16
2022-09-01T23:36:14.541Z,101122.66
2022-09-01T23:38:43.529Z,101124.94
2022-09-01T23:41:15.729Z,101109.25
2022-09-01T23:43:44.691Z,101114.03
2022-09-01T23:46:21.414Z,101109.38
2022-09-01T23:48:51.691Z,101110.47
2022-09-01T23:51:22.077Z,101111.25
2022-09-01T23:53:51.978Z,101109.00
2022-09-01T23:56:23.829Z,101115.66
2022-09-01T23:58:53.048Z,101108.53
